createdAt,value
2023-05-22T00:03:52.040Z,21.85
2023-05-22T00:08:53.544Z,21.81
2023-05-22T00:13:55.243Z,21.76
2023-05-22T00:18:57.383Z,21.72
2023-05-22T00:23:58.974Z,21.71
2023-05-22T00:29:00.428Z,21.66
2023-05-22T00:34:02.007Z,21.64
2023-05-22T00:39:03.608Z,21.61
2023-05-22T00:44:05.350Z,21.53
2023-05-22T00:49:06.867Z,21.54
2023-05-22T00:54:10.583Z,21.50
2023-05-22T00:59:12.202Z,21.50
2023-05-22T01:04:15.510Z,21.43
2023-05-22T01:09:17.232Z,21.40
2023-05-22T01:14:47.122Z,21.29
2023-05-22T01:20:06.849Z,21.22
2023-05-22T01:25:21.127Z,21.18
2023-05-22T01:30:47.226Z,21.19
2023-05-22T01:35:54.042Z,21.13
2023-05-22T01:40:56.743Z,21.10
2023-05-22T01:45:58.395Z,21.06
2023-05-22T01:51:23.182Z,21.02
2023-05-22T01:56:34.859Z,21.00
2023-05-22T02:01:38.765Z,20.94
2023-05-22T02:06:41.429Z,20.92
2023-05-22T02:11:43.695Z,20.91
2023-05-22T02:16:47.817Z,20.87
2023-05-22T02:21:49.462Z,20.79
2023-05-22T02:26:50.940Z,20.82
2023-05-22T02:31:54.107Z,20.80
2023-05-22T02:36:56.524Z,20.76
2023-05-22T02:41:58.065Z,20.72
2023-05-22T02:46:59.596Z,20.68
2023-05-22T02:52:01.712Z,20.67
2023-05-22T02:57:04.132Z,20.65
2023-05-22T03:02:06.088Z,20.62
2023-05-22T03:07:07.643Z,20.61
2023-05-22T03:12:09.925Z,20.57
2023-05-22T03:17:11.917Z,20.55
2023-05-22T03:22:13.333Z,20.49
2023-05-22T03:27:17.141Z,20.48
2023-05-22T03:32:18.645Z,20.45
2023-05-22T03:37:20.066Z,20.41
2023-05-22T03:42:21.817Z,20.38
2023-05-22T03:47:23.228Z,20.35
2023-05-22T03:52:25.777Z,20.36
2023-05-22T03:57:27.590Z,20.32
2023-05-22T04:02:30.196Z,20.28
2023-05-22T04:07:32.842Z,20.25
2023-05-22T04:12:34.473Z,20.25
2023-05-22T04:17:40.075Z,20.21
2023-05-22T04:22:41.714Z,20.22
2023-05-22T04:27:43.161Z,20.15
2023-05-22T04:32:44.719Z,20.23
2023-05-22T04:37:46.476Z,20.21
2023-05-22T04:42:48.154Z,20.23
2023-05-22T04:47:49.675Z,20.22
2023-05-22T04:52:51.224Z,20.21
2023-05-22T04:57:53.264Z,20.24
2023-05-22T05:02:55.582Z,20.24
2023-05-22T05:07:57.217Z,20.27
2023-05-22T05:12:58.662Z,20.34
2023-05-22T05:18:00.310Z,20.39
2023-05-22T05:23:02.070Z,20.46
2023-05-22T05:28:11.249Z,20.53
2023-05-22T05:33:13.568Z,20.62
2023-05-22T05:38:17.280Z,20.71
2023-05-22T05:43:19.271Z,20.78
2023-05-22T05:48:20.975Z,20.84
2023-05-22T05:53:22.411Z,20.89
2023-05-22T05:58:23.939Z,20.88
2023-05-22T06:03:27.969Z,20.89
2023-05-22T06:08:29.421Z,20.93
2023-05-22T06:13:31.121Z,21.08
2023-05-22T06:18:32.883Z,21.16
2023-05-22T06:23:34.249Z,21.24
2023-05-22T06:28:35.773Z,21.34
2023-05-22T06:33:37.759Z,21.48
2023-05-22T06:38:39.422Z,21.54
2023-05-22T06:43:41.116Z,21.62
2023-05-22T06:48:42.743Z,21.69
2023-05-22T06:53:44.352Z,21.78
2023-05-22T06:58:46.314Z,21.84
2023-05-22T07:03:47.700Z,21.98
2023-05-22T07:08:49.087Z,22.14
2023-05-22T07:13:51.093Z,22.27
2023-05-22T07:18:53.671Z,22.42
2023-05-22T07:23:55.090Z,22.57
2023-05-22T07:28:56.866Z,22.69
2023-05-22T07:33:58.285Z,22.76
2023-05-22T07:39:00.107Z,22.93
2023-05-22T07:44:01.561Z,22.97
2023-05-22T07:49:03.067Z,23.14
2023-05-22T07:54:04.906Z,23.39
2023-05-22T07:59:07.521Z,23.59
2023-05-22T08:04:09.456Z,23.80
2023-05-22T08:09:11.225Z,23.92
2023-05-22T08:14:12.677Z,23.96
2023-05-22T08:19:14.594Z,24.04
2023-05-22T08:24:16.476Z,24.11
2023-05-22T08:29:18.617Z,24.25
2023-05-22T08:34:19.985Z,24.39
2023-05-22T08:39:21.631Z,24.56
2023-05-22T08:44:25.091Z,24.72
2023-05-22T08:49:27.040Z,24.94
2023-05-22T08:54:30.656Z,25.02
2023-05-22T08:59:32.192Z,25.26
2023-05-22T09:04:33.725Z,25.52
2023-05-22T09:09:38.930Z,25.75
2023-05-22T09:14:44.230Z,25.90
2023-05-22T09:19:46.351Z,25.97
2023-05-22T09:24:47.824Z,26.24
2023-05-22T09:29:53.633Z,26.45
2023-05-22T09:35:03.205Z,26.69
2023-05-22T09:40:10.987Z,26.99
2023-05-22T09:45:13.131Z,27.24
2023-05-22T09:50:14.586Z,27.34
2023-05-22T09:55:16.886Z,27.56
2023-05-22T10:00:19.989Z,27.63
2023-05-22T10:05:22.883Z,27.79
2023-05-22T10:10:25.490Z,27.46
2023-05-22T10:15:27.386Z,27.78
2023-05-22T10:20:30.083Z,28.10
2023-05-22T10:25:31.655Z,28.30
2023-05-22T10:31:05.324Z,28.46
2023-05-22T10:36:56.048Z,28.78
2023-05-22T10:42:02.109Z,28.99
2023-05-22T10:47:11.416Z,29.22
2023-05-22T10:52:15.938Z,29.33
2023-05-22T10:57:17.699Z,28.99
2023-05-22T11:02:31.427Z,29.14
2023-05-22T11:07:42.425Z,29.50
2023-05-22T11:12:43.969Z,29.80
2023-05-22T11:17:51.861Z,30.14
2023-05-22T11:22:57.696Z,30.52
2023-05-22T11:28:01.952Z,30.63
2023-05-22T11:33:05.508Z,30.53
2023-05-22T11:38:07.684Z,30.41
2023-05-22T11:43:09.287Z,30.42
2023-05-22T11:48:14.608Z,30.45
2023-05-22T11:53:16.996Z,30.56
2023-05-22T11:58:27.236Z,30.65
2023-05-22T12:03:30.885Z,30.68
2023-05-22T12:08:32.453Z,30.62
2023-05-22T12:13:34.008Z,30.06
2023-05-22T12:18:37.457Z,30.37
2023-05-22T12:23:49.018Z,30.55
2023-05-22T12:28:54.404Z,30.59
2023-05-22T12:33:56.862Z,30.65
2023-05-22T12:38:58.208Z,30.70
2023-05-22T12:43:59.695Z,30.79
2023-05-22T12:49:01.503Z,30.89
2023-05-22T12:54:03.705Z,30.84
2023-05-22T12:59:05.149Z,30.87
2023-05-22T13:04:06.720Z,30.32
2023-05-22T13:09:08.293Z,30.11
2023-05-22T13:14:10.110Z,30.10
2023-05-22T13:19:12.113Z,30.01
2023-05-22T13:24:13.795Z,29.99
2023-05-22T13:29:15.264Z,29.72
2023-05-22T13:34:16.856Z,29.74
2023-05-22T13:39:18.515Z,29.80
2023-05-22T13:44:21.196Z,29.74
2023-05-22T13:49:22.605Z,29.73
2023-05-22T13:54:24.149Z,29.66
2023-05-22T13:59:25.632Z,29.60
2023-05-22T14:04:27.177Z,29.41
2023-05-22T14:09:30.174Z,29.46
2023-05-22T14:14:31.558Z,29.55
2023-05-22T14:19:33.097Z,29.48
2023-05-22T14:24:34.583Z,29.51
2023-05-22T14:29:36.106Z,29.47
2023-05-22T14:34:37.592Z,29.36
2023-05-22T14:39:39.073Z,29.16
2023-05-22T14:44:40.801Z,29.04
2023-05-22T14:49:42.236Z,29.00
2023-05-22T14:54:43.855Z,28.97
2023-05-22T14:59:45.528Z,28.76
2023-05-22T15:04:47.054Z,28.56
2023-05-22T15:09:48.635Z,28.41
2023-05-22T15:14:50.070Z,28.14
2023-05-22T15:19:51.438Z,27.94
2023-05-22T15:25:09.786Z,27.48
2023-05-22T15:30:12.241Z,26.93
2023-05-22T15:35:14.012Z,26.99
2023-05-22T15:40:18.238Z,26.91
2023-05-22T15:45:20.462Z,27.26
2023-05-22T15:50:22.008Z,27.47
2023-05-22T15:55:23.408Z,27.54
2023-05-22T16:00:26.214Z,27.54
2023-05-22T16:05:27.598Z,27.51
2023-05-22T16:10:29.159Z,27.62
2023-05-22T16:15:31.482Z,27.52
2023-05-22T16:20:34.017Z,27.34
2023-05-22T16:25:35.546Z,27.19
2023-05-22T16:30:37.156Z,27.15
2023-05-22T16:35:39.039Z,27.12
2023-05-22T16:40:40.796Z,27.08
2023-05-22T16:45:46.741Z,27.02
2023-05-22T16:50:48.325Z,26.99
2023-05-22T16:55:49.914Z,26.84
2023-05-22T17:00:51.464Z,26.78
2023-05-22T17:05:52.899Z,26.67
2023-05-22T17:10:55.359Z,26.57
2023-05-22T17:15:56.727Z,26.38
2023-05-22T17:20:58.263Z,26.22
2023-05-22T17:25:59.795Z,26.12
2023-05-22T17:31:01.192Z,25.96
2023-05-22T17:36:02.659Z,25.90
2023-05-22T17:41:04.210Z,25.61
2023-05-22T17:46:06.178Z,25.46
2023-05-22T17:51:07.807Z,24.96
2023-05-22T17:56:09.265Z,24.72
2023-05-22T18:01:10.761Z,24.84
2023-05-22T18:06:12.371Z,24.86
2023-05-22T18:11:13.775Z,24.64
2023-05-22T18:16:19.361Z,24.58
2023-05-22T18:21:20.814Z,24.51
2023-05-22T18:26:22.246Z,24.55
2023-05-22T18:31:26.211Z,24.55
2023-05-22T18:36:27.811Z,24.51
2023-05-22T18:41:29.149Z,24.44
2023-05-22T18:46:31.379Z,24.46
2023-05-22T18:51:33.356Z,24.23
2023-05-22T18:56:34.724Z,24.07
2023-05-22T19:01:36.283Z,24.11
2023-05-22T19:06:41.859Z,24.06
2023-05-22T19:11:43.471Z,23.94
2023-05-22T19:16:45.022Z,23.90
2023-05-22T19:21:46.393Z,23.78
2023-05-22T19:26:48.033Z,23.58
2023-05-22T19:31:49.419Z,23.67
2023-05-22T19:36:52.043Z,23.50
2023-05-22T19:41:54.525Z,23.44
2023-05-22T19:46:56.999Z,23.18
2023-05-22T19:51:59.630Z,23.12
2023-05-22T19:57:01.025Z,22.92
2023-05-22T20:02:02.490Z,22.91
2023-05-22T20:07:05.370Z,22.98
2023-05-22T20:12:07.228Z,22.83
2023-05-22T20:17:09.053Z,22.88
2023-05-22T20:22:11.165Z,22.98
2023-05-22T20:27:13.176Z,23.00
2023-05-22T20:32:14.568Z,22.95
2023-05-22T20:37:16.097Z,22.81
2023-05-22T20:42:19.622Z,22.78
2023-05-22T20:47:21.128Z,22.68
2023-05-22T20:52:24.803Z,22.63
2023-05-22T20:57:26.266Z,22.50
2023-05-22T21:02:27.700Z,22.50
2023-05-22T21:07:29.233Z,22.36
2023-05-22T21:12:31.041Z,22.43
2023-05-22T21:17:32.478Z,22.31
2023-05-22T21:22:34.037Z,22.37
2023-05-22T21:27:36.060Z,22.47
2023-05-22T21:32:37.690Z,22.46
2023-05-22T21:37:40.695Z,22.42
2023-05-22T21:42:47.009Z,22.44
2023-05-22T21:47:49.150Z,22.48
2023-05-22T21:52:50.725Z,22.38
2023-05-22T21:57:52.492Z,22.37
2023-05-22T22:02:55.116Z,22.33
2023-05-22T22:07:56.942Z,22.27
2023-05-22T22:12:58.412Z,22.29
2023-05-22T22:18:02.269Z,22.30
2023-05-22T22:23:05.301Z,22.16
2023-05-22T22:28:07.580Z,22.13
2023-05-22T22:33:09.333Z,22.12
2023-05-22T22:38:10.885Z,22.10
2023-05-22T22:43:12.331Z,21.84
2023-05-22T22:48:13.751Z,21.84
2023-05-22T22:53:15.171Z,21.87
2023-05-22T22:58:18.823Z,21.88
2023-05-22T23:03:20.289Z,21.89
2023-05-22T23:08:21.797Z,21.88
2023-05-22T23:13:23.355Z,21.70
2023-05-22T23:18:24.884Z,21.56
2023-05-22T23:23:28.492Z,21.55
2023-05-22T23:28:29.825Z,21.50
2023-05-22T23:33:31.212Z,21.19
2023-05-22T23:38:33.089Z,21.32
2023-05-22T23:43:34.689Z,21.32
2023-05-22T23:48:36.418Z,21.15
2023-05-22T23:53:37.973Z,21.11
2023-05-22T23:58:39.598Z,21.14
